createdAt,value
2022-08-10T00:01:51.327Z,100250.16
2022-08-10T00:04:22.094Z,100262.75
2022-08-10T00:06:53.313Z,100253.53
2022-08-10T00:09:23.144Z,100248.28
2022-08-10T00:11:49.980Z,100256.91
2022-08-10T00:14:18.707Z,100250.16
2022-08-10T00:16:46.728Z,100251.84
2022-08-10T00:19:17.247Z,100253.53
2022-08-10T00:21:45.688Z,100248.09
2022-08-10T00:24:14.322Z,100255.63
2022-08-10T00:27:58.875Z,100257.09
2022-08-10T00:29:30.970Z,100253.94
2022-08-10T00:31:59.605Z,100254.75
2022-08-10T00:34:29.161Z,100251.38
2022-08-10T00:36:57.963Z,100253.06
2022-08-10T00:39:27.289Z,100249.28
2022-08-10T00:42:02.175Z,100244.25
2022-08-10T00:44:41.713Z,100249.28
2022-08-10T00:47:21.319Z,100253.44
2022-08-10T00:49:58.885Z,100249.69
2022-08-10T00:52:27.034Z,100255.78
2022-08-10T00:54:55.634Z,100253.06
2022-08-10T00:57:25.572Z,100261.88
2022-08-10T00:59:58.504Z,100258.31
2022-08-10T01:02:30.716Z,100250.31
2022-08-10T01:05:07.034Z,100250.97
2022-08-10T01:07:45.946Z,100250.56
2022-08-10T01:10:43.553Z,100246.16
2022-08-10T01:13:21.395Z,100237.97
2022-08-10T01:16:13.388Z,100236.06
2022-08-10T01:19:20.616Z,100232.44
2022-08-10T01:22:03.812Z,100236.66
2022-08-10T01:25:01.548Z,100243.34
2022-08-10T01:28:12.468Z,100236.22
2022-08-10T01:30:43.321Z,100237.91
2022-08-10T01:33:15.941Z,100234.06
2022-08-10T01:36:31.946Z,100241.69
2022-08-10T01:39:03.863Z,100238.16
2022-08-10T01:41:48.027Z,100238.78
2022-08-10T01:44:20.217Z,100245.47
2022-08-10T01:46:53.000Z,100248.00
2022-08-10T01:49:26.380Z,100245.94
2022-08-10T01:52:00.599Z,100251.38
2022-08-10T01:54:30.022Z,100248.00
2022-08-10T01:56:59.648Z,100254.53
2022-08-10T01:59:36.134Z,100249.69
2022-08-10T02:02:06.532Z,100249.69
2022-08-10T02:04:37.542Z,100258.91
2022-08-10T02:07:12.378Z,100251.78
2022-08-10T02:09:45.926Z,100250.50
2022-08-10T02:12:20.567Z,100253.22
2022-08-10T02:14:54.594Z,100248.41
2022-08-10T02:17:59.838Z,100241.28
2022-08-10T02:20:24.123Z,100251.13
2022-08-10T02:23:03.627Z,100242.94
2022-08-10T02:25:41.809Z,100249.28
2022-08-10T02:28:30.046Z,100250.72
2022-08-10T02:31:11.531Z,100251.78
2022-08-10T02:33:56.802Z,100251.78
2022-08-10T02:36:27.982Z,100247.13
2022-08-10T02:39:00.699Z,100243.72
2022-08-10T02:45:13.461Z,100243.72
2022-08-10T02:45:26.306Z,100238.25
2022-08-10T02:47:46.711Z,100245.44
2022-08-10T02:50:40.237Z,100247.31
2022-08-10T02:53:55.550Z,100254.25
2022-08-10T02:56:43.317Z,100247.56
2022-08-10T02:59:44.319Z,100243.34
2022-08-10T03:02:18.326Z,100248.41
2022-08-10T03:04:55.627Z,100241.28
2022-08-10T03:07:42.875Z,100246.34
2022-08-10T03:10:23.059Z,100255.78
2022-08-10T03:12:53.857Z,100250.97
2022-08-10T03:15:24.382Z,100253.09
2022-08-10T03:17:57.729Z,100249.31
2022-08-10T03:20:38.245Z,100243.03
2022-08-10T03:23:13.971Z,100248.50
2022-08-10T03:25:53.164Z,100248.50
2022-08-10T03:28:30.368Z,100248.50
2022-08-10T03:31:00.477Z,100251.84
2022-08-10T03:33:32.408Z,100247.69
2022-08-10T03:36:42.493Z,100254.38
2022-08-10T03:38:51.764Z,100250.16
2022-08-10T03:41:27.616Z,100253.53
2022-08-10T03:43:59.887Z,100258.59
2022-08-10T03:46:29.548Z,100259.44
2022-08-10T03:49:02.251Z,100260.72
2022-08-10T03:51:30.232Z,100263.66
2022-08-10T03:54:05.187Z,100265.53
2022-08-10T03:56:39.307Z,100267.81
2022-08-10T03:59:08.999Z,100272.84
2022-08-10T04:02:44.992Z,100274.97
2022-08-10T04:04:26.186Z,100278.31
2022-08-10T04:06:57.651Z,100273.06
2022-08-10T04:09:43.404Z,100289.25
2022-08-10T04:12:15.849Z,100281.28
2022-08-10T04:14:51.126Z,100285.06
2022-08-10T04:18:03.107Z,100282.09
2022-08-10T04:20:51.878Z,100282.16
2022-08-10T04:23:23.423Z,100287.22
2022-08-10T04:25:52.608Z,100280.13
2022-08-10T04:28:22.115Z,100287.72
2022-08-10T04:30:57.266Z,100284.31
2022-08-10T04:33:24.864Z,100294.44
2022-08-10T04:35:53.399Z,100289.47
2022-08-10T04:38:23.519Z,100289.78
2022-08-10T04:40:52.806Z,100291.66
2022-08-10T04:43:19.723Z,100294.00
2022-08-10T04:45:51.757Z,100293.81
2022-08-10T04:48:42.781Z,100288.97
2022-08-10T04:51:19.191Z,100292.16
2022-08-10T04:54:04.982Z,100290.91
2022-08-10T04:56:36.381Z,100291.34
2022-08-10T04:59:10.189Z,100293.03
2022-08-10T05:02:30.214Z,100288.00
2022-08-10T05:04:34.517Z,100279.19
2022-08-10T05:07:16.680Z,100289.72
2022-08-10T05:10:01.515Z,100290.09
2022-08-10T05:12:36.207Z,100290.91
2022-08-10T05:15:09.788Z,100288.78
2022-08-10T05:17:39.901Z,100299.53
2022-08-10T05:20:10.777Z,100303.72
2022-08-10T05:22:41.068Z,100300.53
2022-08-10T05:25:12.681Z,100298.03
2022-08-10T05:27:40.894Z,100302.69
2022-08-10T05:30:15.243Z,100305.78
2022-08-10T05:32:56.624Z,100310.31
2022-08-10T05:35:27.813Z,100304.84
2022-08-10T05:38:12.695Z,100305.66
2022-08-10T05:40:46.621Z,100304.91
2022-08-10T05:43:22.552Z,100311.94
2022-08-10T05:46:18.286Z,100304.66
2022-08-10T05:48:56.894Z,100312.75
2022-08-10T05:51:30.276Z,100306.03
2022-08-10T05:54:06.491Z,100311.63
2022-08-10T05:56:56.894Z,100306.81
2022-08-10T06:00:33.149Z,100312.84
2022-08-10T06:02:39.778Z,100307.09
2022-08-10T06:05:37.868Z,100305.88
2022-08-10T06:08:17.669Z,100300.53
2022-08-10T06:10:59.758Z,100303.75
2022-08-10T06:14:12.475Z,100306.25
2022-08-10T06:16:43.727Z,100297.41
2022-08-10T06:19:17.291Z,100307.63
2022-08-10T06:22:00.505Z,100300.72
2022-08-10T06:25:21.454Z,100304.28
2022-08-10T06:27:40.009Z,100304.28
2022-08-10T06:30:20.878Z,100315.59
2022-08-10T06:32:55.783Z,100315.28
2022-08-10T06:35:53.381Z,100315.13
2022-08-10T06:38:23.647Z,100316.94
2022-08-10T06:40:53.210Z,100305.28
2022-08-10T06:43:23.868Z,100316.03
2022-08-10T06:46:07.542Z,100317.72
2022-08-10T06:48:41.309Z,100317.56
2022-08-10T06:51:15.751Z,100320.31
2022-08-10T06:53:51.957Z,100318.63
2022-08-10T06:56:36.110Z,100313.75
2022-08-10T06:59:22.776Z,100310.84
2022-08-10T07:01:54.553Z,100303.50
2022-08-10T07:04:31.956Z,100298.25
2022-08-10T07:07:03.179Z,100317.41
2022-08-10T07:09:32.615Z,100310.56
2022-08-10T07:12:08.503Z,100311.63
2022-08-10T07:14:42.522Z,100310.84
2022-08-10T07:17:16.797Z,100307.94
2022-08-10T07:19:49.828Z,100312.97
2022-08-10T07:23:26.801Z,100306.22
2022-08-10T07:25:28.905Z,100303.44
2022-08-10T07:28:00.487Z,100304.31
2022-08-10T07:30:33.166Z,100312.75
2022-08-10T07:33:01.686Z,100304.41
2022-08-10T07:35:34.707Z,100300.22
2022-08-10T07:38:07.600Z,100311.47
2022-08-10T07:40:35.351Z,100306.56
2022-08-10T07:43:03.221Z,100303.72
2022-08-10T07:45:33.534Z,100310.41
2022-08-10T07:48:07.381Z,100307.28
2022-08-10T07:50:40.200Z,100308.59
2022-08-10T07:53:13.151Z,100308.69
2022-08-10T07:56:04.829Z,100307.66
2022-08-10T07:58:39.425Z,100308.13
2022-08-10T08:01:15.595Z,100310.66
2022-08-10T08:03:47.263Z,100310.16
2022-08-10T08:06:36.151Z,100321.03
2022-08-10T08:09:03.860Z,100312.31
2022-08-10T08:11:32.168Z,100318.53
2022-08-10T08:14:00.819Z,100322.13
2022-08-10T08:16:29.905Z,100318.44
2022-08-10T08:24:05.948Z,100313.44
2022-08-10T08:24:35.894Z,100315.56
2022-08-10T08:27:05.096Z,100313.41
2022-08-10T08:29:35.046Z,100315.31
2022-08-10T08:32:04.297Z,100317.09
2022-08-10T08:34:37.650Z,100319.84
2022-08-10T08:43:10.634Z,100322.63
2022-08-10T08:46:04.762Z,100325.72
2022-08-10T08:48:56.249Z,100332.06
2022-08-10T08:52:07.330Z,100328.25
2022-08-10T08:59:02.916Z,100323.09
2022-08-10T09:01:54.156Z,100324.44
2022-08-10T09:04:37.555Z,100317.09
2022-08-10T09:07:59.296Z,100322.91
2022-08-10T09:11:00.141Z,100321.16
2022-08-10T09:13:37.177Z,100320.75
2022-08-10T09:16:22.419Z,100324.53
2022-08-10T09:19:04.146Z,100314.63
2022-08-10T09:21:56.775Z,100318.34
2022-08-10T09:24:46.597Z,100317.56
2022-08-10T09:27:21.885Z,100301.75
2022-08-10T09:29:57.398Z,100303.75
2022-08-10T09:36:15.041Z,100305.16
2022-08-10T09:36:22.615Z,100302.97
2022-08-10T09:39:02.983Z,100303.22
2022-08-10T09:41:56.172Z,100303.84
2022-08-10T09:44:57.992Z,100298.28
2022-08-10T09:48:02.722Z,100293.66
2022-08-10T09:51:16.323Z,100291.56
2022-08-10T09:53:38.983Z,100306.06
2022-08-10T09:56:49.879Z,100299.28
2022-08-10T10:00:01.891Z,100298.28
2022-08-10T10:02:58.083Z,100297.16
2022-08-10T10:05:52.244Z,100298.91
2022-08-10T10:08:22.101Z,100290.00
2022-08-10T10:10:54.573Z,100289.19
2022-08-10T10:14:19.925Z,100293.66
2022-08-10T10:17:01.940Z,100286.16
2022-08-10T10:19:40.738Z,100291.06
2022-08-10T10:22:26.452Z,100295.53
2022-08-10T10:25:21.466Z,100280.88
2022-08-10T10:28:02.991Z,100276.66
2022-08-10T10:30:39.006Z,100280.31
2022-08-10T10:33:08.592Z,100284.97
2022-08-10T10:35:57.955Z,100286.59
2022-08-10T10:38:41.748Z,100282.16
2022-08-10T10:41:26.252Z,100279.91
2022-08-10T10:44:23.040Z,100271.44
2022-08-10T10:46:57.480Z,100268.19
2022-08-10T10:50:06.201Z,100268.44
2022-08-10T10:53:19.181Z,100260.25
2022-08-10T10:56:14.531Z,100257.19
2022-08-10T10:58:43.098Z,100256.09
2022-08-10T11:01:21.782Z,100254.88
2022-08-10T11:04:02.063Z,100254.44
2022-08-10T11:06:40.359Z,100251.88
2022-08-10T11:10:03.239Z,100241.75
2022-08-10T11:12:32.117Z,100245.41
2022-08-10T11:15:09.431Z,100244.78
2022-08-10T11:17:42.487Z,100240.03
2022-08-10T11:20:25.999Z,100243.22
2022-08-10T11:23:23.618Z,100239.41
2022-08-10T11:26:10.640Z,100237.75
2022-08-10T11:28:44.923Z,100220.31
2022-08-10T11:31:21.624Z,100208.88
2022-08-10T11:34:48.539Z,100212.84
2022-08-10T11:37:15.953Z,100208.34
2022-08-10T11:39:59.698Z,100206.13
2022-08-10T11:42:51.262Z,100203.88
2022-08-10T11:45:20.614Z,100203.44
2022-08-10T11:47:59.607Z,100194.59
2022-08-10T11:50:33.060Z,100204.34
2022-08-10T11:53:39.925Z,100203.66
2022-08-10T11:56:11.376Z,100193.91
2022-08-10T11:59:01.447Z,100206.16
2022-08-10T12:01:45.837Z,100199.69
2022-08-10T12:04:14.800Z,100193.50
2022-08-10T12:06:55.353Z,100196.19
2022-08-10T12:10:04.849Z,100195.88
2022-08-10T12:12:11.553Z,100190.50
2022-08-10T12:14:50.588Z,100183.34
2022-08-10T12:17:24.302Z,100176.31
2022-08-10T12:20:06.961Z,100181.00
2022-08-10T12:22:47.398Z,100185.28
2022-08-10T12:25:56.663Z,100178.63
2022-08-10T12:28:49.412Z,100171.72
2022-08-10T12:31:12.283Z,100167.19
2022-08-10T12:34:08.615Z,100161.41
2022-08-10T12:36:53.693Z,100169.34
2022-08-10T12:39:28.083Z,100162.13
2022-08-10T12:42:10.375Z,100164.72
2022-08-10T12:44:48.472Z,100155.59
2022-08-10T12:47:22.262Z,100151.09
2022-08-10T12:50:29.799Z,100150.16
2022-08-10T12:53:06.902Z,100154.00
2022-08-10T12:55:37.433Z,100152.03
2022-08-10T12:58:57.188Z,100153.97
2022-08-10T13:01:15.222Z,100139.41
2022-08-10T13:04:20.780Z,100150.28
2022-08-10T13:06:35.588Z,100134.06
2022-08-10T13:09:13.273Z,100138.19
2022-08-10T13:12:37.274Z,100141.47
2022-08-10T13:14:45.464Z,100142.88
2022-08-10T13:17:14.379Z,100147.91
2022-08-10T13:19:55.641Z,100137.91
2022-08-10T13:22:30.436Z,100131.97
2022-08-10T13:25:01.514Z,100130.19
2022-08-10T13:28:00.632Z,100137.00
2022-08-10T13:30:35.531Z,100132.03
2022-08-10T13:33:07.444Z,100123.72
2022-08-10T13:35:36.169Z,100116.78
2022-08-10T13:38:05.134Z,100114.38
2022-08-10T13:40:37.378Z,100122.53
2022-08-10T13:43:08.289Z,100114.72
2022-08-10T13:45:42.354Z,100126.84
2022-08-10T13:48:18.570Z,100114.56
2022-08-10T13:50:46.917Z,100109.19
2022-08-10T13:53:17.731Z,100116.84
2022-08-10T13:55:55.170Z,100102.69
2022-08-10T13:58:33.078Z,100109.38
2022-08-10T14:01:08.544Z,100108.38
2022-08-10T14:03:38.088Z,100108.59
2022-08-10T14:06:06.932Z,100114.75
2022-08-10T14:08:36.024Z,100104.66
2022-08-10T14:11:10.861Z,100117.28
2022-08-10T14:14:02.784Z,100111.50
2022-08-10T14:16:30.824Z,100109.53
2022-08-10T14:19:03.339Z,100103.66
2022-08-10T14:21:30.233Z,100095.78
2022-08-10T14:23:58.169Z,100092.75
2022-08-10T14:26:29.525Z,100097.28
2022-08-10T14:29:06.735Z,100093.34
2022-08-10T14:31:37.180Z,100089.31
2022-08-10T14:34:08.981Z,100089.03
2022-08-10T14:36:54.479Z,100097.91
2022-08-10T14:39:48.484Z,100088.56
2022-08-10T14:42:27.227Z,100082.25
2022-08-10T14:45:03.374Z,100091.59
2022-08-10T14:48:03.359Z,100098.78
2022-08-10T14:50:32.341Z,100095.28
2022-08-10T14:53:09.168Z,100090.56
2022-08-10T14:55:59.797Z,100085.47
2022-08-10T14:58:27.329Z,100084.44
2022-08-10T15:00:56.457Z,100088.31
2022-08-10T15:04:01.339Z,100076.50
2022-08-10T15:06:30.776Z,100079.81
2022-08-10T15:09:12.636Z,100075.47
2022-08-10T15:12:13.354Z,100084.72
2022-08-10T15:14:43.534Z,100076.81
2022-08-10T15:17:16.144Z,100076.19
2022-08-10T15:20:02.259Z,100074.69
2022-08-10T15:22:50.411Z,100087.50
2022-08-10T15:25:24.406Z,100080.13
2022-08-10T15:28:10.350Z,100073.31
2022-08-10T15:30:43.892Z,100081.06
2022-08-10T15:34:05.709Z,100076.06
2022-08-10T15:37:36.801Z,100079.94
2022-08-10T15:40:21.529Z,100077.16
2022-08-10T15:42:34.714Z,100082.56
2022-08-10T15:45:02.246Z,100085.41
2022-08-10T15:47:44.902Z,100076.22
2022-08-10T15:50:31.698Z,100073.88
2022-08-10T15:53:15.968Z,100074.97
2022-08-10T15:55:54.928Z,100071.53
2022-08-10T15:58:39.946Z,100068.94
2022-08-10T16:02:04.159Z,100062.84
2022-08-10T16:04:15.808Z,100073.09
2022-08-10T16:06:48.699Z,100072.25
2022-08-10T16:10:23.197Z,100076.84
2022-08-10T16:12:29.190Z,100060.78
2022-08-10T16:15:00.089Z,100063.28
2022-08-10T16:17:28.262Z,100068.44
2022-08-10T16:19:57.897Z,100067.00
2022-08-10T16:22:34.197Z,100061.47
2022-08-10T16:25:13.853Z,100072.00
2022-08-10T16:27:43.040Z,100070.88
2022-08-10T16:30:10.007Z,100071.97
2022-08-10T16:32:39.249Z,100068.53
2022-08-10T16:35:10.358Z,100069.06
2022-08-10T16:37:57.585Z,100067.03
2022-08-10T16:40:31.627Z,100074.75
2022-08-10T16:43:08.500Z,100057.88
2022-08-10T16:45:40.737Z,100074.56
2022-08-10T16:48:11.382Z,100066.78
2022-08-10T16:50:46.399Z,100067.91
2022-08-10T16:53:20.943Z,100062.88
2022-08-10T16:55:55.433Z,100071.78
2022-08-10T16:58:38.316Z,100061.53
2022-08-10T17:01:29.502Z,100077.19
2022-08-10T17:04:06.816Z,100073.25
2022-08-10T17:06:44.191Z,100076.56
2022-08-10T17:09:27.262Z,100078.19
2022-08-10T17:12:01.704Z,100078.09
2022-08-10T17:14:30.418Z,100092.03
2022-08-10T17:17:08.661Z,100089.28
2022-08-10T17:19:43.349Z,100081.56
2022-08-10T17:22:19.159Z,100091.00
2022-08-10T17:25:14.135Z,100090.56
2022-08-10T17:28:03.923Z,100088.69
2022-08-10T17:30:36.918Z,100090.00
2022-08-10T17:33:22.446Z,100092.72
2022-08-10T17:35:52.165Z,100092.88
2022-08-10T17:38:24.749Z,100095.22
2022-08-10T17:41:04.719Z,100098.97
2022-08-10T17:44:01.376Z,100087.50
2022-08-10T17:46:26.158Z,100096.81
2022-08-10T17:48:55.484Z,100091.50
2022-08-10T17:51:28.680Z,100098.81
2022-08-10T17:54:00.821Z,100094.34
2022-08-10T17:56:33.376Z,100090.66
2022-08-10T17:59:07.262Z,100092.53
2022-08-10T18:01:58.728Z,100089.69
2022-08-10T18:04:41.534Z,100089.56
2022-08-10T18:07:12.473Z,100101.63
2022-08-10T18:09:50.686Z,100104.78
2022-08-10T18:12:29.119Z,100105.31
2022-08-10T18:15:02.159Z,100102.41
2022-08-10T18:17:39.690Z,100106.19
2022-08-10T18:20:08.832Z,100105.00
2022-08-10T18:22:43.730Z,100103.53
2022-08-10T18:25:24.061Z,100118.06
2022-08-10T18:28:04.828Z,100120.75
2022-08-10T18:30:36.997Z,100117.88
2022-08-10T18:33:09.230Z,100121.03
2022-08-10T18:35:37.281Z,100113.53
2022-08-10T18:38:06.710Z,100120.53
2022-08-10T18:40:35.709Z,100122.16
2022-08-10T18:44:04.418Z,100121.63
2022-08-10T18:45:57.182Z,100125.00
2022-08-10T18:48:33.368Z,100134.59
2022-08-10T18:51:05.919Z,100136.56
2022-08-10T18:53:48.445Z,100135.63
2022-08-10T18:56:40.581Z,100134.22
2022-08-10T18:59:27.465Z,100137.09
2022-08-10T19:02:01.667Z,100127.28
2022-08-10T19:04:37.173Z,100131.38
2022-08-10T19:07:25.623Z,100132.09
2022-08-10T19:10:16.611Z,100135.56
2022-08-10T19:13:03.189Z,100134.25
2022-08-10T19:15:34.438Z,100129.06
2022-08-10T19:18:23.901Z,100137.06
2022-08-10T19:20:57.476Z,100136.78
2022-08-10T19:23:26.829Z,100146.31
2022-08-10T19:26:36.501Z,100142.69
2022-08-10T19:30:11.152Z,100139.66
2022-08-10T19:32:28.563Z,100139.38
2022-08-10T19:35:01.486Z,100137.09
2022-08-10T19:37:40.851Z,100142.22
2022-08-10T19:40:11.958Z,100143.78
2022-08-10T19:43:13.355Z,100143.63
2022-08-10T19:46:27.907Z,100141.66
2022-08-10T19:49:29.699Z,100143.78
2022-08-10T19:52:22.697Z,100142.91
2022-08-10T20:09:45.756Z,100135.75
2022-08-10T20:12:23.272Z,100134.50
2022-08-10T20:14:56.411Z,100141.69
2022-08-10T20:17:52.224Z,100140.53
2022-08-10T20:23:35.273Z,100135.72
2022-08-10T20:26:20.662Z,100131.09
2022-08-10T20:29:09.105Z,100142.13
2022-08-10T20:31:40.186Z,100135.44
2022-08-10T20:34:25.247Z,100136.72
2022-08-10T20:37:03.002Z,100130.84
2022-08-10T20:39:57.179Z,100140.00
2022-08-10T20:43:05.445Z,100138.31
2022-08-10T20:46:04.996Z,100135.38
2022-08-10T20:48:36.358Z,100134.75
2022-08-10T20:51:08.212Z,100137.56
2022-08-10T20:53:45.210Z,100138.38
2022-08-10T20:56:32.989Z,100139.00
2022-08-10T20:59:37.113Z,100133.25
2022-08-10T21:02:23.210Z,100138.56
2022-08-10T21:05:01.322Z,100139.34
2022-08-10T21:08:05.493Z,100137.69
2022-08-10T21:11:16.028Z,100130.59
2022-08-10T21:14:16.523Z,100135.44
2022-08-10T21:17:01.253Z,100132.97
2022-08-10T21:19:36.413Z,100132.38
2022-08-10T21:22:11.729Z,100135.78
2022-08-10T21:25:08.882Z,100134.59
2022-08-10T21:28:13.464Z,100140.19
2022-08-10T21:31:01.645Z,100138.47
2022-08-10T21:33:49.023Z,100138.81
2022-08-10T21:36:24.989Z,100141.88
2022-08-10T21:39:20.051Z,100139.13
2022-08-10T21:42:42.918Z,100139.88
2022-08-10T21:45:58.261Z,100141.47
2022-08-10T21:49:14.530Z,100142.22
2022-08-10T21:52:12.564Z,100135.06
2022-08-10T21:55:13.337Z,100134.53
2022-08-10T21:58:00.783Z,100134.22
2022-08-10T22:00:46.520Z,100135.56
2022-08-10T22:06:52.663Z,100132.16
2022-08-10T22:09:43.309Z,100122.53
2022-08-10T22:12:32.497Z,100125.94
2022-08-10T22:16:03.226Z,100130.22
2022-08-10T22:18:58.804Z,100130.59
2022-08-10T22:22:19.707Z,100133.19
2022-08-10T22:25:31.440Z,100130.28
2022-08-10T22:28:18.788Z,100138.94
2022-08-10T22:31:27.811Z,100137.66
2022-08-10T22:31:42.070Z,100119.97
2022-08-10T22:35:04.338Z,100126.09
2022-08-10T22:38:08.367Z,100119.81
2022-08-10T22:40:54.154Z,100117.69
2022-08-10T22:43:49.622Z,100121.88
2022-08-10T22:46:40.680Z,100111.72
2022-08-10T22:49:07.985Z,100109.25
2022-08-10T22:51:54.271Z,100118.09
2022-08-10T22:54:52.162Z,100116.03
2022-08-10T22:57:38.150Z,100119.44
2022-08-10T23:00:16.935Z,100115.91
2022-08-10T23:02:53.334Z,100113.97
2022-08-10T23:05:29.076Z,100124.41
2022-08-10T23:08:04.260Z,100124.34
2022-08-10T23:10:39.026Z,100114.13
2022-08-10T23:13:36.187Z,100119.56
2022-08-10T23:16:35.927Z,100109.22
2022-08-10T23:19:11.674Z,100112.69
2022-08-10T23:22:03.002Z,100120.44
2022-08-10T23:24:49.059Z,100111.38
2022-08-10T23:27:37.391Z,100116.63
2022-08-10T23:30:17.749Z,100117.06
2022-08-10T23:32:52.031Z,100111.59
2022-08-10T23:36:32.233Z,100117.06
2022-08-10T23:38:15.129Z,100109.50
2022-08-10T23:40:47.433Z,100118.41
2022-08-10T23:43:40.777Z,100116.38
2022-08-10T23:46:15.808Z,100124.34
2022-08-10T23:48:47.122Z,100124.81
2022-08-10T23:51:17.461Z,100119.31
2022-08-10T23:53:49.051Z,100116.78
2022-08-10T23:56:22.277Z,100120.81
2022-08-10T23:58:58.987Z,100117.25
